Terminal Aerodrome Forecast
Issued by NWS

Home | Current Version | Previous Version | Text Only | Print | Product List | Glossary On
Versions: 1 2 3 4 5 6 7 8 9 10 11 12 13 14 15 16 17 18
000
FTUS43 KEAX 040500
TAFMKC
TAF
KMKC 040522Z 0406/0506 01012KT P6SM SCT030
     FM041200 01010KT P6SM BKN050
     FM041900 01008KT P6SM BKN100=

USA.gov is the U.S. government's official web portal to all federal, state and local government web resources and services.